Latest Weather Observations for Kempsey Airport

IDN60801

Issued at 7:32 pm EST Saturday 4 July 2015 (issued every 30 minutes, with the page automatically refreshed every 10 minutes)

About weather observations | Map of weather stations | Latest weather observations for NSW | Other Formats
Station Details ID: 059007 Name: KEMPSEY AIRPORT AWS Lat: -31.07 Lon: 152.77 Height: 13.0 m
Data from the previous 72 hours. | See also: Recent months for locations in New South Wales
Date/Time
EST
Temp
°C
App
Temp
°C
Dew
Point
Rel
Hum
%
Delta-T
°C
Wind Press
QNH
hPa
Press
MSL
hPa
Rain
since 9 am
mm
Dir
 
Spd
km/h
Gust
km/h
Spd
kts
Gust
kts
04/07:30pm 9.9 7.7 8.0 88 0.9 WSW 9 15 5 8 1021.4 1021.4 0.0
04/07:00pm 10.2 8.4 8.1 87 1.0 WSW 7 9 4 5 1021.2 1021.2 0.0
04/06:30pm 10.7 10.3 8.3 85 1.2 CALM 0 0 0 0 1021.0 1021.0 0.0
04/06:00pm 11.0 9.4 7.9 81 1.5 SW 6 9 3 5 1020.6 1020.6 0.0
04/05:30pm 11.0 8.6 6.9 76 1.9 SSE 9 9 5 5 1020.3 1020.3 0.0
04/05:00pm 14.1 11.6 8.1 67 3.0 NNE 11 15 6 8 1019.9 1019.9 0.0
04/04:30pm 16.9 14.2 5.5 47 5.5 N 9 9 5 5 1019.5 1019.5 0.0
04/04:00pm 19.4 17.1 5.5 40 6.8 N 7 9 4 5 1019.4 1019.4 0.0
04/03:30pm 20.2 17.3 4.7 36 7.5 NNW 9 11 5 6 1019.4 1019.4 0.0
04/03:00pm 20.5 17.1 4.1 34 7.9 NNW 11 15 6 8 1019.3 1019.3 0.0
04/02:30pm 20.5 16.7 4.1 34 7.9 NNW 13 19 7 10 1019.5 1019.5 0.0
04/02:00pm 20.1 16.0 4.2 35 7.6 NW 15 26 8 14 1019.5 1019.5 0.0
04/01:30pm 20.1 14.6 4.2 35 7.6 NW 22 33 12 18 1019.8 1019.8 0.0
04/01:00pm 19.7 15.8 5.4 39 7.0 NNW 15 22 8 12 1020.4 1020.4 0.0
04/12:30pm 19.0 15.0 6.5 44 6.2 NNW 17 20 9 11 1020.9 1020.9 0.0
04/12:00pm 18.9 15.6 6.4 44 6.2 NW 13 17 7 9 1021.5 1021.5 0.0
04/11:30am 18.0 14.4 6.8 48 5.6 NNW 15 20 8 11 1022.3 1022.3 0.0
04/11:00am 17.2 13.7 7.3 52 4.9 NNW 15 20 8 11 1022.8 1022.8 0.0
04/10:30am 16.3 12.3 6.7 53 4.7 NW 17 20 9 11 1023.3 1023.3 0.0
04/10:00am 15.0 11.6 7.5 61 3.7 NW 15 17 8 9 1023.8 1023.8 0.0
04/09:30am 14.0 11.3 7.3 64 3.3 WNW 11 17 6 9 1024.1 1024.1 0.0
04/09:00am 12.4 8.1 7.1 70 2.5 NW 19 24 10 13 1024.2 1024.2 0.0
04/08:30am 11.2 7.4 7.5 78 1.8 NW 17 22 9 12 1023.9 1023.9 0.0
04/08:00am 9.9 5.6 6.8 81 1.4 WNW 19 24 10 13 1023.9 1023.9 0.0
04/07:30am 9.5 7.5 6.9 84 1.2 WNW 7 11 4 6 1023.8 1023.8 0.0
04/07:00am 9.3 7.4 6.9 85 1.1 WNW 6 9 3 5 1024.0 1024.0 0.0
04/06:30am 8.6 7.5 6.7 88 0.9 WSW 2 7 1 4 1023.8 1023.8 0.0
04/06:00am 8.6 6.5 6.6 87 0.9 WSW 7 11 4 6 1023.5 1023.5 0.0
04/05:30am 8.2 7.4 6.3 88 0.9 CALM 0 0 0 0 1023.1 1023.1 0.0
04/05:00am 8.3 7.1 6.3 87 0.9 SSW 2 7 1 4 1023.0 1023.0 0.0
04/04:30am 8.8 6.9 6.6 86 1.0 WNW 6 9 3 5 1022.9 1022.9 0.0
04/04:00am 9.1 8.3 6.7 85 1.1 CALM 0 0 0 0 1023.2 1023.2 0.0
04/03:30am 9.6 7.3 7.4 86 1.0 W 9 11 5 6 1023.4 1023.4 0.0
04/03:00am 9.6 6.5 7.4 86 1.0 NW 13 17 7 9 1023.5 1023.5 0.0
04/02:30am 9.1 8.1 7.4 89 0.8 WSW 2 7 1 4 1023.8 1023.8 0.0
04/02:00am 8.6 7.8 6.4 86 1.0 CALM 0 7 0 4 1024.2 1024.2 0.0
04/01:30am 9.3 7.0 7.4 88 0.9 W 9 15 5 8 1024.0 1024.0 0.0
04/01:00am 9.3 7.9 7.4 88 0.9 WSW 4 11 2 6 1024.3 1024.3 0.0
04/12:30am 9.2 7.5 7.6 90 0.8 W 6 11 3 6 1024.3 1024.3 0.0
04/12:00am 8.3 6.2 6.8 90 0.7 W 7 9 4 5 1024.4 1024.4 0.0
 
Date/Time
EST
Temp
°C
App
Temp
°C
Dew
Point
Rel
Hum
%
Delta-T
°C
Wind Press
QNH
hPa
Press
MSL
hPa
Rain
since 9 am
mm
Dir
 
Spd
km/h
Gust
km/h
Spd
kts
Gust
kts
03/11:30pm 8.9 7.8 7.0 88 0.9 SSW 2 7 1 4 1024.4 1024.4 0.0
03/11:00pm 9.3 7.0 7.4 88 0.9 W 9 11 5 6 1024.7 1024.7 0.0
03/10:30pm 9.0 7.0 7.1 88 0.9 W 7 13 4 7 1024.8 1024.8 0.0
03/10:00pm 9.0 5.9 7.3 89 0.8 NW 13 17 7 9 1024.7 1024.7 0.0
03/09:30pm 8.7 6.8 6.8 88 0.9 SSW 6 9 3 5 1025.0 1025.0 0.0
03/09:00pm 8.8 6.1 7.3 90 0.7 WSW 11 11 6 6 1025.0 1025.0 0.0
03/08:30pm 8.2 6.1 6.5 89 0.8 WSW 7 9 4 5 1024.9 1024.9 0.0
03/08:00pm 8.5 5.4 7.1 91 0.7 WSW 13 13 7 7 1024.9 1024.9 0.0
03/07:30pm 8.0 6.7 6.1 88 0.9 SW 2 7 1 4 1024.7 1024.7 0.0
03/07:00pm 8.0 5.7 5.8 86 1.0 WSW 7 9 4 5 1024.3 1024.3 0.0
03/06:30pm 9.8 7.7 6.5 80 1.5 WSW 7 9 4 5 1024.3 1024.3 0.0
03/06:00pm 10.7 9.0 7.4 80 1.6 WNW 6 7 3 4 1024.2 1024.2 0.0
03/05:30pm 10.7 8.3 6.8 77 1.8 SW 9 11 5 6 1023.9 1023.9 0.0
03/05:00pm 12.1 9.6 6.6 69 2.6 SW 9 13 5 7 1023.7 1023.7 0.0
03/04:30pm 14.0 11.7 7.3 64 3.3 SW 9 15 5 8 1023.6 1023.6 0.0
03/04:00pm 15.1 12.0 7.2 59 3.9 SW 13 19 7 10 1023.4 1023.4 0.0
03/03:30pm 16.0 11.6 7.5 57 4.2 SW 20 28 11 15 1023.3 1023.3 0.0
03/03:00pm 16.8 12.0 7.2 53 4.8 SW 22 30 12 16 1023.0 1023.0 0.0
03/02:30pm 16.8 11.6 7.2 53 4.8 SSW 24 30 13 16 1022.9 1022.9 0.0
03/02:00pm 17.3 11.8 7.4 52 4.9 SSW 26 33 14 18 1022.9 1022.9 0.0
03/01:30pm 17.8 12.6 7.2 50 5.3 SW 24 32 13 17 1022.7 1022.7 0.0
03/01:00pm 17.6 13.4 7.6 52 5.0 SSW 19 28 10 15 1022.8 1022.8 0.0
03/12:30pm 17.4 12.5 6.9 50 5.2 SSW 22 32 12 17 1023.0 1023.0 0.0
03/12:00pm 16.8 11.8 6.6 51 5.0 SSW 22 33 12 18 1023.5 1023.5 0.0
03/11:30am 16.5 11.5 6.6 52 4.9 SSW 22 33 12 18 1023.9 1023.9 0.0
03/11:00am 15.9 10.9 6.3 53 4.6 SSW 22 35 12 19 1024.1 1024.1 0.0
03/10:30am 15.4 10.7 5.9 53 4.6 SSW 20 30 11 16 1024.2 1024.2 0.0
03/10:00am 15.1 9.6 6.1 55 4.3 SW 24 35 13 19 1024.4 1024.4 0.0
03/09:30am 14.4 9.6 5.7 56 4.1 SW 20 30 11 16 1024.4 1024.4 0.0
03/09:00am 13.6 8.8 5.5 58 3.8 SW 20 32 11 17 1024.1 1024.1 0.0
03/08:30am 12.7 7.9 5.4 61 3.4 SW 20 33 11 18 1023.9 1023.9 0.0
03/08:00am 11.5 6.7 4.9 64 3.0 SW 19 28 10 15 1023.7 1023.7 0.0
03/07:30am 9.6 5.4 4.0 68 2.5 SW 15 17 8 9 1023.2 1023.2 0.0
03/07:00am 9.2 4.2 3.6 68 2.4 WSW 19 22 10 12 1023.1 1023.1 0.0
03/06:30am 8.0 3.0 3.5 73 1.9 WSW 19 24 10 13 1022.8 1022.8 0.0
03/06:00am 8.2 3.7 2.4 67 2.4 W 15 17 8 9 1022.6 1022.6 0.0
03/05:30am 8.4 3.9 2.2 65 2.6 W 15 28 8 15 1022.2 1022.2 0.0
03/05:00am 8.6 4.5 2.0 63 2.7 W 13 17 7 9 1021.8 1021.8 0.0
03/04:30am 7.4 3.2 1.5 66 2.4 W 13 17 7 9 1021.7 1021.7 0.0
03/04:00am 8.0 4.9 1.4 63 2.7 W 7 11 4 6 1021.7 1021.7 0.0
03/03:30am 7.4 3.5 1.3 65 2.5 SW 11 17 6 9 1021.5 1021.5 0.0
03/03:00am 9.1 3.9 2.2 62 2.9 SW 19 33 10 18 1021.4 1021.4 0.0
03/02:30am 8.2 2.7 2.0 65 2.6 SW 20 28 11 15 1021.5 1021.5 0.0
03/02:00am 8.3 3.1 2.3 66 2.5 SW 19 28 10 15 1021.7 1021.7 0.0
03/01:30am 6.6 1.6 1.5 70 2.0 SW 17 19 9 10 1021.7 1021.7 0.0
03/01:00am 8.7 4.6 2.5 65 2.6 SSW 13 17 7 9 1021.6 1021.6 0.0
03/12:30am 7.6 2.8 2.7 71 2.0 SW 17 20 9 11 1021.6 1021.6 0.0
03/12:00am 6.6 3.6 2.3 74 1.8 WSW 7 11 4 6 1021.6 1021.6 0.0
 
Date/Time
EST
Temp
°C
App
Temp
°C
Dew
Point
Rel
Hum
%
Delta-T
°C
Wind Press
QNH
hPa
Press
MSL
hPa
Rain
since 9 am
mm
Dir
 
Spd
km/h
Gust
km/h
Spd
kts
Gust
kts
02/11:30pm 5.9 2.5 2.0 76 1.6 WSW 9 15 5 8 1021.4 1021.4 0.0
02/11:00pm 7.8 4.8 2.3 68 2.3 WSW 7 9 4 5 1021.6 1021.6 0.0
02/10:30pm 6.0 2.6 2.1 76 1.6 W 9 11 5 6 1021.4 1021.4 0.0
02/10:00pm 5.9 2.2 2.2 77 1.5 W 11 13 6 7 1021.0 1021.0 0.0
02/09:30pm 8.3 5.9 1.9 64 2.6 W 4 9 2 5 1020.7 1020.7 0.0
02/09:00pm 7.7 3.7 3.0 72 2.0 W 13 15 7 8 1020.8 1020.8 0.0
02/08:30pm 7.3 4.5 3.0 74 1.8 WSW 7 11 4 6 1020.8 1020.8 0.0
02/08:00pm 8.4 6.4 4.4 76 1.7 WSW 4 9 2 5 1020.4 1020.4 0.0
02/07:30pm 7.8 5.5 4.7 81 1.4 W 6 9 3 5 1019.8 1019.8 0.0
02/07:00pm 9.0 5.5 5.4 78 1.6 WSW 13 17 7 9 1019.7 1019.7 0.0
02/06:30pm 9.3 6.9 6.9 85 1.1 WSW 9 13 5 7 1019.2 1019.2 0.0
02/06:00pm 9.1 7.2 6.7 85 1.1 SSW 6 7 3 4 1018.3 1018.3 0.0
02/05:30pm 9.7 8.8 6.2 79 1.6 CALM 0 0 0 0 1017.3 1017.3 0.0
02/05:00pm 12.0 11.2 6.3 68 2.7 CALM 0 0 0 0 1016.7 1016.7 0.0
02/04:30pm 16.8 16.2 7.2 53 4.8 CALM 0 6 0 3 1016.8 1016.8 0.0
02/04:00pm 18.3 15.8 4.8 41 6.5 NNW 7 9 4 5 1016.6 1016.6 0.0
02/03:30pm 18.5 15.5 4.3 39 6.8 NNW 9 11 5 6 1016.5 1016.5 0.0
02/03:00pm 18.0 14.6 4.2 40 6.5 NNW 11 15 6 8 1016.5 1016.5 0.0
02/02:30pm 18.9 15.3 3.1 35 7.4 NW 11 17 6 9 1016.7 1016.7 0.0
02/02:00pm 19.8 16.5 4.7 37 7.3 NW 11 15 6 8 1016.7 1016.7 0.0
02/01:30pm 19.1 15.8 4.5 38 7.0 WNW 11 17 6 9 1016.8 1016.8 0.0
02/01:00pm 19.8 16.1 4.7 37 7.3 NW 13 17 7 9 1016.9 1016.9 0.0
02/12:30pm 18.9 15.9 6.1 43 6.3 NW 11 17 6 9 1017.0 1017.0 0.0
02/12:00pm 18.6 14.6 5.1 41 6.5 WNW 15 20 8 11 1017.6 1017.6 0.0
02/11:30am 17.7 13.7 6.6 48 5.5 NW 17 26 9 14 1018.5 1018.5 0.0
02/11:00am 16.3 13.6 7.5 56 4.4 NW 11 17 6 9 1019.1 1019.1 0.0
02/10:30am 14.2 10.8 7.5 64 3.3 NW 15 20 8 11 1019.6 1019.6 0.0
02/10:00am 13.6 9.2 7.4 66 3.0 NW 20 26 11 14 1019.9 1019.9 0.0
02/09:30am 13.2 9.5 7.9 70 2.6 NW 17 24 9 13 1020.1 1020.1 0.0
02/09:00am 10.9 8.1 8.5 85 1.2 WNW 13 19 7 10 1020.6 1020.6 0.2
02/08:30am 8.4 5.7 7.5 94 0.4 W 11 15 6 8 1020.5 1020.5 0.2
02/08:00am 7.1 4.5 6.2 94 0.4 W 9 13 5 7 1020.5 1020.5 0.2
02/07:30am 6.8 3.8 6.1 95 0.3 WSW 11 15 6 8 1020.6 1020.6 0.2
02/07:00am 5.8 2.2 5.1 95 0.3 WSW 13 15 7 8 1020.5 1020.5 0.2
02/06:30am 5.3 1.6 4.6 95 0.3 WSW 13 15 7 8 1020.3 1020.3 0.2
02/06:00am 5.2 2.2 4.3 94 0.4 WSW 9 11 5 6 1020.0 1020.0 0.2
02/05:30am 5.4 3.8 4.5 94 0.4 WSW 2 7 1 4 1019.9 1019.9 0.2
02/05:00am 6.0 4.9 5.1 94 0.4 CALM 0 0 0 0 1019.9 1019.9 0.2
02/04:30am 6.3 3.6 5.4 94 0.4 W 9 11 5 6 1020.0 1020.0 0.2
02/04:00am 6.8 4.5 5.9 94 0.4 W 7 9 4 5 1019.9 1019.9 0.0
02/03:30am 7.6 6.8 6.7 94 0.4 CALM 0 0 0 0 1020.1 1020.1 0.0
02/03:00am 9.6 9.0 8.8 95 0.4 W 2 7 1 4 1020.6 1020.6 0.0
02/02:30am 10.2 8.8 9.4 95 0.4 WNW 7 11 4 6 1021.0 1021.0 0.0
02/02:00am 10.6 9.3 9.8 95 0.4 W 7 13 4 7 1021.2 1021.2 0.0
02/01:30am 10.3 9.1 9.5 95 0.4 W 6 11 3 6 1021.5 1021.5 0.0
02/01:00am 10.1 7.9 9.3 95 0.4 WNW 11 15 6 8 1021.8 1021.8 0.0
02/12:30am 10.0 8.5 9.2 95 0.4 WNW 7 11 4 6 1021.7 1021.7 0.0
02/12:00am 9.9 8.0 9.1 95 0.4 W 9 15 5 8 1022.0 1022.0 0.0
 
Date/Time
EST
Temp
°C
App
Temp
°C
Dew
Point
Rel
Hum
%
Delta-T
°C
Wind Press
QNH
hPa
Press
MSL
hPa
Rain
since 9 am
mm
Dir
 
Spd
km/h
Gust
km/h
Spd
kts
Gust
kts
01/11:30pm 10.0 8.5 9.1 94 0.4 W 7 11 4 6 1022.2 1022.2 0.0
01/11:00pm 9.3 7.6 8.4 94 0.4 WSW 7 9 4 5 1022.6 1022.6 0.0
01/10:30pm 10.1 9.9 9.2 94 0.4 CALM 0 2 0 1 1022.9 1022.9 0.0
01/10:00pm 10.6 10.6 9.7 94 0.5 CALM 0 0 0 0 1023.0 1023.0 0.0
01/09:30pm 10.8 9.4 9.7 93 0.6 W 7 11 4 6 1022.9 1022.9 0.0
01/09:00pm 10.8 9.0 9.6 92 0.6 WSW 9 9 5 5 1022.8 1022.8 0.0
01/08:30pm 11.2 10.1 10.1 93 0.6 WNW 6 7 3 4 1023.1 1023.1 0.0
01/08:00pm 12.5 11.8 11.4 93 0.6 W 6 9 3 5 1023.2 1023.2 0.0

Other Formats:

Comma delimited format used in spreadsheet applications
http://www.bom.gov.au/fwo/IDN60801/IDN60801.94785.axf

JavaScript Object Notation format (JSON) in row-major order
http://www.bom.gov.au/fwo/IDN60801/IDN60801.94785.json